createdAt,value
2022-09-17T00:01:50.022Z,17.95
2022-09-17T00:04:17.218Z,17.97
2022-09-17T00:06:44.415Z,17.99
2022-09-17T00:09:12.010Z,17.92
2022-09-17T00:11:40.586Z,17.92
2022-09-17T00:14:09.393Z,17.96
2022-09-17T00:16:38.070Z,18.07
2022-09-17T00:19:06.062Z,18.17
2022-09-17T00:21:33.253Z,18.22
2022-09-17T00:24:01.721Z,18.19
2022-09-17T00:26:29.653Z,18.23
2022-09-17T00:28:57.718Z,18.28
2022-09-17T00:31:25.516Z,18.20
2022-09-17T00:33:53.215Z,18.17
2022-09-17T00:36:20.978Z,18.12
2022-09-17T00:38:49.006Z,17.97
2022-09-17T00:41:16.194Z,17.99
2022-09-17T00:43:51.050Z,17.97
2022-09-17T00:46:37.201Z,17.88
2022-09-17T00:49:14.018Z,17.87
2022-09-17T00:51:44.430Z,17.79
2022-09-17T00:54:11.840Z,17.79
2022-09-17T00:56:40.157Z,17.79
2022-09-17T00:59:08.079Z,17.89
2022-09-17T01:01:35.963Z,17.82
2022-09-17T01:04:03.562Z,17.85
2022-09-17T01:06:33.530Z,17.86
2022-09-17T01:09:00.708Z,17.74
2022-09-17T01:11:37.562Z,17.62
2022-09-17T01:14:16.584Z,17.50
2022-09-17T01:16:53.763Z,17.43
2022-09-17T01:19:30.089Z,17.45
2022-09-17T01:22:07.469Z,17.38
2022-09-17T01:24:37.629Z,17.36
2022-09-17T01:27:25.339Z,17.36
2022-09-17T01:30:12.409Z,17.52
2022-09-17T01:32:49.610Z,17.46
2022-09-17T01:35:26.426Z,17.54
2022-09-17T01:38:00.328Z,17.69
2022-09-17T01:40:37.808Z,17.86
2022-09-17T01:43:21.414Z,17.79
2022-09-17T01:45:52.713Z,17.63
2022-09-17T01:48:21.178Z,17.56
2022-09-17T01:51:08.888Z,17.48
2022-09-17T01:53:45.346Z,17.47
2022-09-17T01:56:16.406Z,17.45
2022-09-17T01:58:46.072Z,17.43
2022-09-17T02:01:15.222Z,17.52
2022-09-17T02:03:49.435Z,17.44
2022-09-17T02:06:19.440Z,17.58
2022-09-17T02:08:55.081Z,17.65
2022-09-17T02:11:22.696Z,17.69
2022-09-17T02:14:00.560Z,17.71
2022-09-17T02:16:33.014Z,17.79
2022-09-17T02:19:03.477Z,17.78
2022-09-17T02:21:39.242Z,17.79
2022-09-17T02:24:11.725Z,17.86
2022-09-17T02:26:41.526Z,17.77
2022-09-17T02:29:14.142Z,17.60
2022-09-17T02:31:42.699Z,17.49
2022-09-17T02:34:11.294Z,17.65
2022-09-17T02:36:38.642Z,17.64
2022-09-17T02:39:05.870Z,17.69
2022-09-17T02:42:02.116Z,17.80
2022-09-17T02:44:46.961Z,17.61
2022-09-17T02:47:47.386Z,17.70
2022-09-17T02:50:14.906Z,17.66
2022-09-17T02:52:55.073Z,17.64
2022-09-17T02:55:23.045Z,17.60
2022-09-17T02:57:56.404Z,17.64
2022-09-17T03:00:24.240Z,17.55
2022-09-17T03:03:00.122Z,17.69
2022-09-17T03:05:28.926Z,17.65
2022-09-17T03:07:57.148Z,17.63
2022-09-17T03:10:24.427Z,17.68
2022-09-17T03:12:53.649Z,17.69
2022-09-17T03:15:20.830Z,17.69
2022-09-17T03:17:52.576Z,17.68
2022-09-17T03:20:20.835Z,17.69
2022-09-17T03:22:48.030Z,17.72
2022-09-17T03:25:15.279Z,17.70
2022-09-17T03:27:42.488Z,17.73
2022-09-17T03:30:09.928Z,17.71
2022-09-17T03:32:37.129Z,17.71
2022-09-17T03:35:04.609Z,17.69
2022-09-17T03:37:33.151Z,17.78
2022-09-17T03:40:00.627Z,17.71
2022-09-17T03:42:28.009Z,17.72
2022-09-17T03:44:55.358Z,17.73
2022-09-17T03:47:22.733Z,17.69
2022-09-17T03:49:50.042Z,17.67
2022-09-17T03:52:17.256Z,17.84
2022-09-17T03:54:44.462Z,17.90
2022-09-17T03:57:11.656Z,17.95
2022-09-17T03:59:38.979Z,17.66
2022-09-17T04:02:07.088Z,17.48
2022-09-17T04:04:34.491Z,17.08
2022-09-17T04:07:01.769Z,16.77
2022-09-17T04:09:29.945Z,16.48
2022-09-17T04:11:57.330Z,16.28
2022-09-17T04:14:24.513Z,16.15
2022-09-17T04:16:51.735Z,16.03
2022-09-17T04:19:18.958Z,16.06
2022-09-17T04:21:46.171Z,16.12
2022-09-17T04:24:13.381Z,16.13
2022-09-17T04:26:41.075Z,16.27
2022-09-17T04:29:08.331Z,16.24
2022-09-17T04:31:35.832Z,16.32
2022-09-17T04:34:03.185Z,16.29
2022-09-17T04:36:30.374Z,16.41
2022-09-17T04:38:57.647Z,16.37
2022-09-17T04:41:26.054Z,16.30
2022-09-17T04:43:53.256Z,16.42
2022-09-17T04:46:20.492Z,16.43
2022-09-17T04:48:47.807Z,16.29
2022-09-17T04:51:14.991Z,16.34
2022-09-17T04:53:42.195Z,16.41
2022-09-17T04:56:09.391Z,16.42
2022-09-17T04:58:36.696Z,16.35
2022-09-17T05:01:03.958Z,16.16
2022-09-17T05:03:31.215Z,16.06
2022-09-17T05:05:58.519Z,15.81
2022-09-17T05:08:25.870Z,15.69
2022-09-17T05:10:53.069Z,15.52
2022-09-17T05:13:20.338Z,15.40
2022-09-17T05:15:47.610Z,15.40
2022-09-17T05:18:14.973Z,15.57
2022-09-17T05:20:42.938Z,15.68
2022-09-17T05:23:10.529Z,15.70
2022-09-17T05:25:37.713Z,15.77
2022-09-17T05:28:05.028Z,15.78
2022-09-17T05:30:32.378Z,15.91
2022-09-17T05:33:03.740Z,15.93
2022-09-17T05:35:31.543Z,15.99
2022-09-17T05:38:02.641Z,15.98
2022-09-17T05:40:30.531Z,15.96
2022-09-17T05:43:03.322Z,15.97
2022-09-17T05:45:30.852Z,15.99
2022-09-17T05:47:58.830Z,15.97
2022-09-17T05:50:26.635Z,15.85
2022-09-17T05:52:54.363Z,15.88
2022-09-17T05:55:22.561Z,15.84
2022-09-17T05:57:50.221Z,15.73
2022-09-17T06:00:17.590Z,15.63
2022-09-17T06:02:44.935Z,15.67
2022-09-17T06:05:12.281Z,15.83
2022-09-17T06:07:39.960Z,15.93
2022-09-17T06:10:08.295Z,15.96
2022-09-17T06:12:38.358Z,16.01
2022-09-17T06:15:05.793Z,16.05
2022-09-17T06:17:33.990Z,15.93
2022-09-17T06:20:01.380Z,15.91
2022-09-17T06:22:28.581Z,15.93
2022-09-17T06:24:55.797Z,16.01
2022-09-17T06:27:23.041Z,16.11
2022-09-17T06:29:50.245Z,16.12
2022-09-17T06:32:17.464Z,16.17
2022-09-17T06:34:44.673Z,16.04
2022-09-17T06:37:11.862Z,15.80
2022-09-17T06:39:40.119Z,15.70
2022-09-17T06:42:07.854Z,15.77
2022-09-17T06:44:35.080Z,15.84
2022-09-17T06:47:02.324Z,15.82
2022-09-17T06:49:31.156Z,15.82
2022-09-17T06:51:58.428Z,15.81
2022-09-17T06:54:25.625Z,15.76
2022-09-17T06:56:52.797Z,15.68
2022-09-17T06:59:20.072Z,15.59
2022-09-17T07:01:47.835Z,15.59
2022-09-17T07:04:15.100Z,15.52
2022-09-17T07:06:43.262Z,15.10
2022-09-17T07:09:11.246Z,15.21
2022-09-17T07:11:39.048Z,15.05
2022-09-17T07:14:07.009Z,14.94
2022-09-17T07:16:35.932Z,14.91
2022-09-17T07:19:03.945Z,15.00
2022-09-17T07:21:31.299Z,15.14
2022-09-17T07:23:58.685Z,14.97
2022-09-17T07:26:25.858Z,14.68
2022-09-17T07:28:52.996Z,14.49
2022-09-17T07:31:20.257Z,14.30
2022-09-17T07:33:47.447Z,13.99
2022-09-17T07:36:17.909Z,13.92
2022-09-17T07:38:45.400Z,13.83
2022-09-17T07:41:14.131Z,13.53
2022-09-17T07:43:41.973Z,13.56
2022-09-17T07:46:13.441Z,13.53
2022-09-17T07:48:40.878Z,13.50
2022-09-17T07:51:08.138Z,13.44
2022-09-17T07:53:35.321Z,13.25
2022-09-17T07:56:02.473Z,13.00
2022-09-17T07:58:30.693Z,12.81
2022-09-17T08:01:04.986Z,12.66
2022-09-17T08:03:32.247Z,12.66
2022-09-17T08:06:04.075Z,12.58
2022-09-17T08:08:35.819Z,12.83
2022-09-17T08:11:04.077Z,12.81
2022-09-17T08:13:31.317Z,12.96
2022-09-17T08:16:01.181Z,13.02
2022-09-17T08:18:28.691Z,13.01
2022-09-17T08:20:59.680Z,13.07
2022-09-17T08:23:28.149Z,13.13
2022-09-17T08:25:55.983Z,13.30
2022-09-17T08:28:24.701Z,13.38
2022-09-17T08:30:52.758Z,13.59
2022-09-17T08:33:20.483Z,13.78
2022-09-17T08:35:51.569Z,14.00
2022-09-17T08:38:18.855Z,14.24
2022-09-17T08:41:09.448Z,14.44
2022-09-17T08:43:44.558Z,14.38
2022-09-17T08:46:11.815Z,14.45
2022-09-17T08:48:48.113Z,14.19
2022-09-17T08:51:25.015Z,14.15
2022-09-17T08:54:02.348Z,14.31
2022-09-17T08:56:32.866Z,14.33
2022-09-17T08:59:00.178Z,14.40
2022-09-17T09:01:43.582Z,14.58
2022-09-17T09:04:10.964Z,14.55
2022-09-17T09:06:42.909Z,14.50
2022-09-17T09:09:17.023Z,14.51
2022-09-17T09:11:45.400Z,14.52
2022-09-17T09:14:27.730Z,14.53
2022-09-17T09:16:56.636Z,14.70
2022-09-17T09:19:25.603Z,14.84
2022-09-17T09:22:05.077Z,14.95
2022-09-17T09:24:50.691Z,15.01
2022-09-17T09:27:19.178Z,14.94
2022-09-17T09:29:52.448Z,15.03
2022-09-17T09:32:37.170Z,14.81
2022-09-17T09:35:15.784Z,14.84
2022-09-17T09:37:45.267Z,15.00
2022-09-17T09:40:30.544Z,15.04
2022-09-17T09:43:00.783Z,15.16
2022-09-17T09:45:37.260Z,15.37
2022-09-17T09:48:10.660Z,15.35
2022-09-17T09:51:05.749Z,15.49
2022-09-17T09:53:53.821Z,15.40
2022-09-17T09:56:30.848Z,15.17
2022-09-17T09:58:58.119Z,15.10
2022-09-17T10:01:27.145Z,15.29
2022-09-17T10:03:58.181Z,15.40
2022-09-17T10:06:29.541Z,15.46
2022-09-17T10:08:56.760Z,15.50
2022-09-17T10:11:28.248Z,15.34
2022-09-17T10:14:15.123Z,15.46
2022-09-17T10:16:42.271Z,15.63
2022-09-17T10:19:09.408Z,15.84
2022-09-17T10:21:37.982Z,15.61
2022-09-17T10:24:11.837Z,15.56
2022-09-17T10:26:39.045Z,15.32
2022-09-17T10:29:12.683Z,15.50
2022-09-17T10:31:49.086Z,15.85
2022-09-17T10:34:20.813Z,16.08
2022-09-17T10:36:48.196Z,16.21
2022-09-17T10:39:27.333Z,16.23
2022-09-17T10:41:54.732Z,16.16
2022-09-17T10:44:23.079Z,16.06
2022-09-17T10:46:51.819Z,16.08
2022-09-17T10:49:37.857Z,16.05
2022-09-17T10:52:25.308Z,15.77
2022-09-17T10:55:16.580Z,15.87
2022-09-17T10:57:46.441Z,15.79
2022-09-17T11:00:20.750Z,15.71
2022-09-17T11:03:06.869Z,15.66
2022-09-17T11:05:39.883Z,15.92
2022-09-17T11:08:19.796Z,15.94
2022-09-17T11:10:46.968Z,16.06
2022-09-17T11:13:20.026Z,16.26
2022-09-17T11:15:59.504Z,16.26
2022-09-17T11:18:37.602Z,16.35
2022-09-17T11:21:08.584Z,16.12
2022-09-17T11:23:51.015Z,16.22
2022-09-17T11:26:31.315Z,15.94
2022-09-17T11:29:17.004Z,15.92
2022-09-17T11:32:03.073Z,16.18
2022-09-17T11:34:56.747Z,16.24
2022-09-17T11:37:26.818Z,16.36
2022-09-17T11:39:57.706Z,15.89
2022-09-17T11:42:29.259Z,15.96
2022-09-17T11:45:02.570Z,15.96
2022-09-17T11:47:32.879Z,16.16
2022-09-17T11:50:06.213Z,16.36
2022-09-17T11:52:39.566Z,16.43
2022-09-17T11:55:25.068Z,16.55
2022-09-17T11:57:57.936Z,16.27
2022-09-17T12:00:25.413Z,16.51
2022-09-17T12:02:58.736Z,16.84
2022-09-17T12:05:28.691Z,17.16
2022-09-17T12:07:55.924Z,17.23
2022-09-17T12:10:35.550Z,17.31
2022-09-17T12:13:14.173Z,17.54
2022-09-17T12:15:44.141Z,17.53
2022-09-17T12:18:33.478Z,17.71
2022-09-17T12:21:02.956Z,17.65
2022-09-17T12:24:08.892Z,17.56
2022-09-17T12:26:51.515Z,17.46
2022-09-17T12:29:37.040Z,17.37
2022-09-17T12:32:22.987Z,17.54
2022-09-17T12:35:08.966Z,17.56
2022-09-17T12:37:42.725Z,17.46
2022-09-17T12:40:13.124Z,17.42
2022-09-17T12:42:43.378Z,17.34
2022-09-17T12:45:25.809Z,17.42
2022-09-17T12:47:56.071Z,17.57
2022-09-17T12:50:36.649Z,17.69
2022-09-17T12:53:39.336Z,17.78
2022-09-17T12:56:06.704Z,17.84
2022-09-17T12:58:50.780Z,17.86
2022-09-17T13:01:25.268Z,17.76
2022-09-17T13:03:56.448Z,17.86
2022-09-17T13:06:42.609Z,17.91
2022-09-17T13:09:12.585Z,18.09
2022-09-17T13:11:45.975Z,18.24
2022-09-17T13:14:24.439Z,18.04
2022-09-17T13:17:00.452Z,17.62
2022-09-17T13:19:27.542Z,17.77
2022-09-17T13:22:00.421Z,17.96
2022-09-17T13:24:31.100Z,18.06
2022-09-17T13:27:01.326Z,18.10
2022-09-17T13:29:44.626Z,18.07
2022-09-17T13:32:30.479Z,17.72
2022-09-17T13:34:57.601Z,17.73
2022-09-17T13:37:26.316Z,17.90
2022-09-17T13:39:53.631Z,17.91
2022-09-17T13:42:21.206Z,17.92
2022-09-17T13:44:53.578Z,17.80
2022-09-17T13:47:20.873Z,17.89
2022-09-17T13:49:50.445Z,17.97
2022-09-17T13:52:34.834Z,18.02
2022-09-17T13:55:02.636Z,18.01
2022-09-17T13:57:33.522Z,17.91
2022-09-17T14:00:01.036Z,17.96
2022-09-17T14:02:30.944Z,17.94
2022-09-17T14:05:18.003Z,18.00
2022-09-17T14:07:47.338Z,17.90
2022-09-17T14:10:14.457Z,18.02
2022-09-17T14:12:41.641Z,18.01
2022-09-17T14:15:27.465Z,17.94
2022-09-17T14:17:54.682Z,17.95
2022-09-17T14:20:22.793Z,17.96
2022-09-17T14:23:00.607Z,17.99
2022-09-17T14:25:48.443Z,18.05
2022-09-17T14:28:29.772Z,17.97
2022-09-17T14:30:57.176Z,17.95
2022-09-17T14:33:30.592Z,18.08
2022-09-17T14:36:08.189Z,18.08
2022-09-17T14:38:35.471Z,18.00
2022-09-17T14:41:07.668Z,18.08
2022-09-17T14:43:40.962Z,17.94
2022-09-17T14:46:10.463Z,17.93
2022-09-17T14:48:37.876Z,17.89
2022-09-17T14:51:17.683Z,17.91
2022-09-17T14:53:45.662Z,17.85
2022-09-17T14:56:14.782Z,17.92
2022-09-17T14:58:43.749Z,17.94
2022-09-17T15:01:22.693Z,17.93
2022-09-17T15:03:50.138Z,18.03
2022-09-17T15:06:21.073Z,17.99
2022-09-17T15:08:48.304Z,18.07
2022-09-17T15:11:15.995Z,18.06
2022-09-17T15:13:53.062Z,18.10
2022-09-17T15:16:25.778Z,17.97
2022-09-17T15:18:54.891Z,17.92
2022-09-17T15:21:31.348Z,17.84
2022-09-17T15:24:01.593Z,17.77
2022-09-17T15:26:32.127Z,17.78
2022-09-17T15:28:59.851Z,17.75
2022-09-17T15:31:28.514Z,17.89
2022-09-17T15:33:59.038Z,17.90
2022-09-17T15:36:31.684Z,17.90
2022-09-17T15:38:59.030Z,17.81
2022-09-17T15:41:29.806Z,17.66
2022-09-17T15:44:33.243Z,17.53
2022-09-17T15:47:19.071Z,17.49
2022-09-17T15:50:04.068Z,17.51
2022-09-17T15:52:34.298Z,17.50
2022-09-17T15:55:01.753Z,17.44
2022-09-17T15:57:31.015Z,17.42
2022-09-17T16:00:14.695Z,17.37
2022-09-17T16:02:41.986Z,17.32
2022-09-17T16:05:18.469Z,17.35
2022-09-17T16:07:45.720Z,17.37
2022-09-17T16:10:14.293Z,17.42
2022-09-17T16:12:41.791Z,17.50
2022-09-17T16:15:09.121Z,17.49
2022-09-17T16:17:36.536Z,17.48
2022-09-17T16:20:07.715Z,17.40
2022-09-17T16:22:35.184Z,17.32
2022-09-17T16:25:02.642Z,17.28
2022-09-17T16:27:32.331Z,17.28
2022-09-17T16:30:05.373Z,17.33
2022-09-17T16:32:32.511Z,17.33
2022-09-17T16:34:59.782Z,17.32
2022-09-17T16:37:26.935Z,17.30
2022-09-17T16:39:54.181Z,17.38
2022-09-17T16:42:21.356Z,17.34
2022-09-17T16:44:48.471Z,17.31
2022-09-17T16:47:15.741Z,17.32
2022-09-17T16:49:42.889Z,17.23
2022-09-17T16:52:10.033Z,17.20
2022-09-17T16:54:37.175Z,17.17
2022-09-17T16:57:04.737Z,17.15
2022-09-17T16:59:31.875Z,17.17
2022-09-17T17:01:59.055Z,17.12
2022-09-17T17:04:26.191Z,17.10
2022-09-17T17:06:53.265Z,17.09
2022-09-17T17:09:20.396Z,17.13
2022-09-17T17:11:47.542Z,17.15
2022-09-17T17:14:15.070Z,17.08
2022-09-17T17:16:43.647Z,17.03
2022-09-17T17:19:11.098Z,17.11
2022-09-17T17:21:38.788Z,17.11
2022-09-17T17:24:07.088Z,16.96
2022-09-17T17:26:34.323Z,16.85
2022-09-17T17:29:02.929Z,16.74
2022-09-17T17:31:30.119Z,16.72
2022-09-17T17:33:57.956Z,16.59
2022-09-17T17:36:25.117Z,16.58
2022-09-17T17:39:01.417Z,16.60
2022-09-17T17:41:28.603Z,16.58
2022-09-17T17:43:58.480Z,16.51
2022-09-17T17:46:25.757Z,16.48
2022-09-17T17:48:53.176Z,16.45
2022-09-17T17:51:20.381Z,16.45
2022-09-17T17:53:47.513Z,16.46
2022-09-17T17:56:14.687Z,16.45
2022-09-17T17:58:42.113Z,16.42
2022-09-17T18:01:13.026Z,16.43
2022-09-17T18:03:40.254Z,16.35
2022-09-17T18:06:07.810Z,16.26
2022-09-17T18:08:35.848Z,16.25
2022-09-17T18:11:05.679Z,16.20
2022-09-17T18:13:34.875Z,16.25
2022-09-17T18:16:02.444Z,16.31
2022-09-17T18:18:34.441Z,16.16
2022-09-17T18:21:02.544Z,16.11
2022-09-17T18:23:29.941Z,16.07
2022-09-17T18:25:58.708Z,16.07
2022-09-17T18:28:26.532Z,16.13
2022-09-17T18:30:54.338Z,16.22
2022-09-17T18:33:24.442Z,16.27
2022-09-17T18:35:56.849Z,16.16
2022-09-17T18:38:24.416Z,16.10
2022-09-17T18:40:51.713Z,16.10
2022-09-17T18:43:19.289Z,16.17
2022-09-17T18:45:53.663Z,16.23
2022-09-17T18:48:20.826Z,16.14
2022-09-17T18:51:06.780Z,15.94
2022-09-17T18:53:36.157Z,15.89
2022-09-17T18:56:20.152Z,15.81
2022-09-17T18:58:48.622Z,15.91
2022-09-17T19:01:16.272Z,16.16
2022-09-17T19:03:43.768Z,16.18
2022-09-17T19:06:11.862Z,16.19
2022-09-17T19:08:39.914Z,16.10
2022-09-17T19:11:07.160Z,16.07
2022-09-17T19:13:35.803Z,15.98
2022-09-17T19:16:03.440Z,15.83
2022-09-17T19:18:33.142Z,15.65
2022-09-17T19:21:00.937Z,15.70
2022-09-17T19:23:28.439Z,15.77
2022-09-17T19:25:55.652Z,15.86
2022-09-17T19:28:23.156Z,15.92
2022-09-17T19:30:50.398Z,16.02
2022-09-17T19:33:17.604Z,15.98
2022-09-17T19:35:44.738Z,15.94
2022-09-17T19:38:13.507Z,15.81
2022-09-17T19:40:41.182Z,15.86
2022-09-17T19:43:08.821Z,15.88
2022-09-17T19:45:36.145Z,15.91
2022-09-17T19:48:03.351Z,15.71
2022-09-17T19:50:31.790Z,15.73
2022-09-17T19:52:59.512Z,15.77
2022-09-17T19:55:29.012Z,15.79
2022-09-17T19:57:56.256Z,15.77
2022-09-17T20:00:23.402Z,15.75
2022-09-17T20:02:50.991Z,15.71
2022-09-17T20:05:18.211Z,15.71
2022-09-17T20:07:45.321Z,15.68
2022-09-17T20:10:12.407Z,15.62
2022-09-17T20:12:39.517Z,15.58
2022-09-17T20:15:06.803Z,15.53
2022-09-17T20:17:33.935Z,15.53
2022-09-17T20:20:01.096Z,15.43
2022-09-17T20:22:28.235Z,15.42
2022-09-17T20:24:55.533Z,15.42
2022-09-17T20:27:24.090Z,15.35
2022-09-17T20:29:51.312Z,15.36
2022-09-17T20:32:18.424Z,15.35
2022-09-17T20:34:45.666Z,15.28
2022-09-17T20:37:13.916Z,15.27
2022-09-17T20:39:41.307Z,15.27
2022-09-17T20:42:08.626Z,15.22
2022-09-17T20:44:36.270Z,15.03
2022-09-17T20:47:04.200Z,14.92
2022-09-17T20:49:31.523Z,14.81
2022-09-17T20:51:58.799Z,14.64
2022-09-17T20:54:25.942Z,14.55
2022-09-17T20:56:53.087Z,14.69
2022-09-17T20:59:24.860Z,14.64
2022-09-17T21:01:53.608Z,14.78
2022-09-17T21:04:21.829Z,14.72
2022-09-17T21:06:52.517Z,14.66
2022-09-17T21:09:20.106Z,14.61
2022-09-17T21:11:48.389Z,14.72
2022-09-17T21:14:16.126Z,14.80
2022-09-17T21:16:43.650Z,14.91
2022-09-17T21:19:12.032Z,14.95
2022-09-17T21:21:39.143Z,14.91
2022-09-17T21:24:07.078Z,14.94
2022-09-17T21:26:34.446Z,15.05
2022-09-17T21:29:01.811Z,14.99
2022-09-17T21:31:32.697Z,14.97
2022-09-17T21:34:02.330Z,15.06
2022-09-17T21:36:30.875Z,15.09
2022-09-17T21:38:59.491Z,15.11
2022-09-17T21:41:27.362Z,15.14
2022-09-17T21:43:54.658Z,15.19
2022-09-17T21:46:23.193Z,15.16
2022-09-17T21:48:52.133Z,14.98
2022-09-17T21:51:23.997Z,14.76
2022-09-17T21:53:51.915Z,14.79
2022-09-17T21:56:19.515Z,14.78
2022-09-17T21:58:50.520Z,14.83
2022-09-17T22:01:18.922Z,14.71
2022-09-17T22:03:46.248Z,14.72
2022-09-17T22:06:23.917Z,14.82
2022-09-17T22:08:52.203Z,14.84
2022-09-17T22:11:20.580Z,14.83
2022-09-17T22:13:55.322Z,14.81
2022-09-17T22:16:23.602Z,14.81
2022-09-17T22:18:51.437Z,14.82
2022-09-17T22:21:23.103Z,14.91
2022-09-17T22:23:51.200Z,14.85
2022-09-17T22:26:19.180Z,14.79
2022-09-17T22:28:46.465Z,14.76
2022-09-17T22:31:14.328Z,14.73
2022-09-17T22:33:45.360Z,14.64
2022-09-17T22:36:14.003Z,14.60
2022-09-17T22:38:41.666Z,14.59
2022-09-17T22:41:12.436Z,14.58
2022-09-17T22:43:40.037Z,14.50
2022-09-17T22:46:16.472Z,14.39
2022-09-17T22:48:44.079Z,14.36
2022-09-17T22:51:11.732Z,14.35
2022-09-17T22:53:39.436Z,14.29
2022-09-17T22:56:08.360Z,14.35
2022-09-17T22:58:35.500Z,14.16
2022-09-17T23:01:04.484Z,14.22
2022-09-17T23:03:31.909Z,14.27
2022-09-17T23:05:59.517Z,14.32
2022-09-17T23:08:26.942Z,14.25
2022-09-17T23:10:54.397Z,14.21
2022-09-17T23:13:21.892Z,14.12
2022-09-17T23:15:49.115Z,14.06
2022-09-17T23:18:16.361Z,13.96
2022-09-17T23:20:43.598Z,13.91
2022-09-17T23:23:11.424Z,14.00
2022-09-17T23:25:38.673Z,14.05
2022-09-17T23:28:05.871Z,14.14
2022-09-17T23:30:33.046Z,14.17
2022-09-17T23:33:00.198Z,14.23
2022-09-17T23:35:27.377Z,14.19
2022-09-17T23:37:54.596Z,14.10
2022-09-17T23:40:23.395Z,14.13
2022-09-17T23:42:50.640Z,14.00
2022-09-17T23:45:18.137Z,14.10
2022-09-17T23:47:45.491Z,14.00
2022-09-17T23:50:12.799Z,14.12
2022-09-17T23:52:40.352Z,14.17
2022-09-17T23:55:07.688Z,14.03
2022-09-17T23:57:35.380Z,13.85
